createdAt,value
2022-08-01T04:32:53.762Z,18.17
2022-08-01T04:36:19.090Z,19.15
2022-08-01T04:39:50.875Z,19.360001
2022-08-01T04:43:09.767Z,19.59
2022-08-01T04:46:35.114Z,19.780001
2022-08-01T04:50:00.437Z,19.93
2022-08-01T04:53:26.745Z,20.07
2022-08-01T04:56:52.258Z,20.200001
2022-08-01T05:00:20.241Z,20.299999
2022-08-01T05:03:46.463Z,20.4
2022-08-01T05:07:11.798Z,20.5
2022-08-01T05:10:37.612Z,20.549999
2022-08-01T05:14:03.297Z,20.59
2022-08-01T05:17:28.638Z,20.620001
2022-08-01T05:20:53.970Z,20.639999
2022-08-01T05:24:19.307Z,20.690001
2022-08-01T05:27:44.601Z,20.719999
2022-08-01T05:31:09.938Z,20.74
2022-08-01T05:34:35.287Z,20.780001
2022-08-01T05:38:00.612Z,20.799999
2022-08-01T05:41:25.914Z,20.82
2022-08-01T05:44:51.236Z,20.85
2022-08-01T05:48:16.543Z,20.889999
2022-08-01T05:51:41.866Z,20.91
2022-08-01T05:55:07.201Z,20.950001
2022-08-01T05:58:32.527Z,21.02
2022-08-01T06:01:57.913Z,21.07
2022-08-01T06:05:23.206Z,21.09
2022-08-01T06:08:48.567Z,21.120001
2022-08-01T06:12:13.879Z,21.129999
2022-08-01T06:15:56.528Z,21.17
2022-08-01T06:19:19.839Z,21.190001
2022-08-01T06:22:52.608Z,21.23
2022-08-01T06:26:17.194Z,21.299999
2022-08-01T06:29:50.455Z,21.33
2022-08-01T06:33:07.936Z,21.360001
2022-08-01T06:36:33.286Z,21.360001
2022-08-01T06:39:58.648Z,21.33
2022-08-01T06:43:23.982Z,21.24
2022-08-01T06:46:49.363Z,21.17
2022-08-01T06:50:14.725Z,21.139999
2022-08-01T06:53:40.200Z,21.139999
2022-08-01T06:57:05.543Z,21.190001
2022-08-01T07:00:30.971Z,21.25
2022-08-01T07:03:56.350Z,21.35
2022-08-01T07:07:21.738Z,21.469999
2022-08-01T07:10:47.115Z,21.540001
2022-08-01T07:14:12.523Z,21.610001
2022-08-01T07:17:37.873Z,21.719999
2022-08-01T07:21:03.217Z,21.9
2022-08-01T07:24:28.804Z,22.110001
2022-08-01T07:27:55.082Z,22.34
2022-08-01T07:31:20.400Z,22.43
2022-08-01T07:34:46.940Z,22.5
2022-08-01T07:38:12.844Z,22.58
2022-08-01T07:41:45.758Z,22.66
2022-08-01T07:45:04.109Z,22.74
2022-08-01T07:48:29.480Z,22.780001
2022-08-01T07:52:02.304Z,22.84
2022-08-01T07:55:20.120Z,22.93
2022-08-01T07:58:45.470Z,23.1
2022-08-01T08:02:11.194Z,23.26
2022-08-01T08:05:51.487Z,23.32
2022-08-01T08:09:01.442Z,23.42
2022-08-01T08:12:28.570Z,23.52
2022-08-01T08:15:52.165Z,23.610001
2022-08-01T08:19:17.610Z,23.59
2022-08-01T08:22:42.963Z,23.49
2022-08-01T08:26:08.276Z,23.450001
2022-08-01T08:29:33.732Z,23.51
2022-08-01T08:32:59.127Z,23.59
2022-08-01T08:36:30.966Z,23.65
2022-08-01T08:39:49.900Z,23.65
2022-08-01T08:43:15.265Z,23.639999
2022-08-01T08:46:40.604Z,23.629999
2022-08-01T08:50:05.988Z,23.610001
2022-08-01T08:53:34.483Z,23.559999
2022-08-01T08:56:56.695Z,23.469999
2022-08-01T09:00:22.007Z,23.42
2022-08-01T09:03:47.393Z,23.4
2022-08-01T09:07:12.768Z,23.35
2022-08-01T09:10:38.058Z,23.27
2022-08-01T09:14:03.411Z,23.17
2022-08-01T09:17:28.819Z,23.129999
2022-08-01T09:20:54.158Z,23.129999
2022-08-01T09:24:19.492Z,23.18
2022-08-01T09:27:46.191Z,23.280001
2022-08-01T09:31:10.142Z,23.4
2022-08-01T09:34:35.456Z,23.6
2022-08-01T09:38:00.777Z,23.9
2022-08-01T09:41:26.109Z,24.09
2022-08-01T09:44:51.430Z,24.15
2022-08-01T09:48:16.752Z,24.16
2022-08-01T09:51:57.862Z,24.15
2022-08-01T09:55:07.443Z,24.15
2022-08-01T09:58:32.762Z,24.120001
2022-08-01T10:01:58.075Z,24.07
2022-08-01T10:05:23.387Z,23.99
2022-08-01T10:08:48.729Z,23.77
2022-08-01T10:12:15.326Z,23.41
2022-08-01T10:15:39.456Z,22.969999
2022-08-01T10:19:04.801Z,22.65
2022-08-01T10:22:30.145Z,22.43
2022-08-01T10:25:56.044Z,22.290001
2022-08-01T10:29:24.402Z,22.17
2022-08-01T10:32:49.871Z,22.1
2022-08-01T10:36:11.516Z,22.07
2022-08-01T10:39:36.821Z,22.08
2022-08-01T10:43:02.163Z,22.1
2022-08-01T10:46:27.483Z,22.110001
2022-08-01T10:49:52.790Z,22.120001
2022-08-01T10:53:23.086Z,22.219999
2022-08-01T10:56:43.453Z,22.32
2022-08-01T11:00:08.781Z,22.34
2022-08-01T11:03:54.792Z,22.35
2022-08-01T11:06:59.425Z,22.389999
2022-08-01T11:10:24.740Z,22.389999
2022-08-01T11:13:50.072Z,22.370001
2022-08-01T11:17:15.441Z,22.389999
2022-08-01T11:20:41.849Z,22.4
2022-08-01T11:24:06.077Z,22.43
2022-08-01T11:27:31.558Z,22.49
2022-08-01T11:30:56.725Z,22.549999
2022-08-01T11:34:22.058Z,22.65
2022-08-01T11:37:47.372Z,22.809999
2022-08-01T11:41:12.704Z,22.969999
2022-08-01T11:44:38.028Z,23.07
2022-08-01T11:48:03.366Z,23.190001
2022-08-01T11:51:31.574Z,23.299999
2022-08-01T11:54:58.183Z,23.42
2022-08-01T11:58:27.470Z,23.540001
2022-08-01T12:01:48.844Z,23.610001
2022-08-01T12:05:14.333Z,23.68
2022-08-01T12:08:39.505Z,23.719999
2022-08-01T12:12:04.819Z,23.889999
2022-08-01T12:15:30.172Z,24.049999
2022-08-01T12:18:55.478Z,24.4
2022-08-01T12:22:20.805Z,24.77
2022-08-01T12:25:46.114Z,25.059999
2022-08-01T12:29:11.464Z,25.200001
2022-08-01T12:32:36.788Z,25.23
2022-08-01T12:36:02.112Z,25.23
2022-08-01T12:39:27.461Z,25.27
2022-08-01T12:42:52.807Z,25.43
2022-08-01T12:46:18.170Z,25.469999
2022-08-01T12:49:43.539Z,25.4
2022-08-01T12:53:08.889Z,25.389999
2022-08-01T12:56:34.210Z,25.34
2022-08-01T12:59:59.527Z,25.280001
2022-08-01T13:03:24.918Z,25.200001
2022-08-01T13:06:50.261Z,25.110001
2022-08-01T13:10:15.735Z,25.08
2022-08-01T13:13:41.252Z,25.040001
2022-08-01T13:17:08.580Z,25.030001
2022-08-01T13:20:33.100Z,25.030001
2022-08-01T13:24:02.302Z,25.040001
2022-08-01T13:27:25.037Z,25.120001
2022-08-01T13:30:51.050Z,25.24
2022-08-01T13:34:16.902Z,25.389999
2022-08-01T13:37:43.270Z,25.57
2022-08-01T13:41:09.401Z,25.629999
2022-08-01T13:44:35.340Z,25.6
2022-08-01T13:48:03.505Z,25.610001
2022-08-01T13:51:27.570Z,25.66
2022-08-01T13:54:53.520Z,25.73
2022-08-01T13:58:19.658Z,25.65
2022-08-01T14:01:45.674Z,25.549999
2022-08-01T14:05:11.709Z,25.43
2022-08-01T14:08:37.647Z,25.32
2022-08-01T14:12:03.745Z,25.209999
2022-08-01T14:15:37.188Z,25.120001
2022-08-01T14:18:55.385Z,25.030001
2022-08-01T14:22:21.359Z,24.98
2022-08-01T14:25:57.914Z,24.92
2022-08-01T15:04:09.827Z,22.879999
2022-08-01T15:07:33.695Z,23.85
2022-08-01T15:10:59.058Z,24.1
2022-08-01T15:14:24.368Z,24.370001
2022-08-01T15:17:49.689Z,24.629999
2022-08-01T15:21:29.522Z,24.82
2022-08-01T15:24:40.338Z,24.969999
2022-08-01T15:28:05.678Z,25.09
2022-08-01T15:31:31.015Z,25.23
2022-08-01T15:34:56.334Z,25.309999
2022-08-01T15:38:21.734Z,25.41
2022-08-01T15:41:47.056Z,25.5
2022-08-01T15:45:20.844Z,25.540001
2022-08-01T15:48:40.060Z,25.58
2022-08-01T15:52:03.025Z,25.57
2022-08-01T15:55:28.330Z,25.530001
2022-08-01T15:58:53.662Z,25.49
2022-08-01T16:02:19.016Z,25.440001
2022-08-01T16:05:44.567Z,25.360001
2022-08-01T16:09:09.664Z,25.290001
2022-08-01T16:12:35.017Z,25.23
2022-08-01T16:16:00.383Z,25.18
2022-08-01T16:19:25.724Z,25.190001
2022-08-01T16:22:51.112Z,25.18
2022-08-01T16:26:27.039Z,25.190001
2022-08-01T16:29:41.814Z,25.200001
2022-08-01T16:33:08.756Z,25.190001
2022-08-01T16:36:32.543Z,25.16
2022-08-01T16:39:57.943Z,25.139999
2022-08-01T16:43:23.296Z,25.1
2022-08-01T16:46:49.160Z,25.07
2022-08-01T16:50:14.135Z,25.040001
2022-08-01T16:53:39.509Z,25.040001
2022-08-01T16:57:08.148Z,25.040001
2022-08-01T17:00:30.272Z,25.08
2022-08-01T17:03:58.138Z,25.139999
2022-08-01T17:07:20.938Z,25.16
2022-08-01T17:10:46.792Z,25.15
2022-08-01T17:14:12.125Z,25.1
2022-08-01T17:17:37.444Z,25.030001
2022-08-01T17:21:02.765Z,24.98
2022-08-01T17:24:28.092Z,24.91
2022-08-01T17:27:53.434Z,24.84
2022-08-01T17:31:18.760Z,24.809999
2022-08-01T17:34:44.094Z,24.780001
2022-08-01T17:38:09.440Z,24.75
2022-08-01T17:41:34.812Z,24.709999
2022-08-01T17:45:00.493Z,24.68
2022-08-01T17:48:25.832Z,24.65
2022-08-01T17:51:51.210Z,24.629999
2022-08-01T17:55:53.163Z,24.58
2022-08-01T17:58:51.551Z,24.540001
2022-08-01T18:02:07.382Z,24.469999
2022-08-01T18:05:36.290Z,24.42
2022-08-01T18:08:59.467Z,24.379999
2022-08-01T18:12:23.352Z,24.32
2022-08-01T18:15:48.696Z,24.299999
2022-08-01T18:19:14.001Z,24.25
2022-08-01T18:22:39.313Z,24.200001
2022-08-01T18:26:04.646Z,24.16
2022-08-01T18:29:47.286Z,24.1
2022-08-01T18:32:55.277Z,24.07
2022-08-01T18:36:32.575Z,24.040001
2022-08-01T18:39:45.888Z,23.99
2022-08-01T18:43:11.228Z,23.950001
2022-08-01T18:46:36.523Z,23.91
2022-08-01T18:50:01.859Z,23.85
2022-08-01T18:53:27.157Z,23.77
2022-08-01T18:56:52.483Z,23.709999
2022-08-01T19:00:17.821Z,23.65
2022-08-01T19:03:43.116Z,23.6
2022-08-01T19:07:08.782Z,23.530001
2022-08-01T19:10:33.716Z,23.469999
2022-08-01T19:13:59.032Z,23.4
2022-08-01T19:17:24.350Z,23.360001
2022-08-01T19:20:49.671Z,23.309999
2022-08-01T19:24:14.993Z,23.27
2022-08-01T19:27:40.301Z,23.24
2022-08-01T19:31:05.644Z,23.219999
2022-08-01T19:34:30.956Z,23.18
2022-08-01T19:37:56.286Z,23.15
2022-08-01T19:41:21.622Z,23.129999
2022-08-01T19:44:46.926Z,23.110001
2022-08-01T19:48:12.354Z,23.09
2022-08-01T19:51:37.660Z,23.059999
2022-08-01T19:55:02.982Z,23.030001
2022-08-01T19:58:28.650Z,22.99
2022-08-01T20:01:53.585Z,22.950001
2022-08-01T20:05:18.917Z,22.870001
2022-08-01T20:08:44.232Z,22.75
2022-08-01T20:12:09.561Z,22.610001
2022-08-01T20:15:34.887Z,22.469999
2022-08-01T20:19:01.376Z,22.360001
2022-08-01T20:22:26.730Z,22.27
2022-08-01T20:25:52.037Z,22.17
2022-08-01T20:29:17.347Z,22.110001
2022-08-01T20:32:42.675Z,22.02
2022-08-01T20:36:08.306Z,21.950001
2022-08-01T20:39:33.299Z,21.870001
2022-08-01T20:42:58.608Z,21.809999
2022-08-01T20:46:23.940Z,21.809999
2022-08-01T20:49:49.280Z,21.82
2022-08-01T20:53:14.579Z,21.84
2022-08-01T20:56:39.909Z,21.860001
2022-08-01T21:00:05.217Z,21.870001
2022-08-01T21:03:30.517Z,21.870001
2022-08-01T21:06:55.822Z,21.9
2022-08-01T21:10:21.134Z,21.959999
2022-08-01T21:13:46.449Z,21.959999
2022-08-01T21:17:11.986Z,21.969999
2022-08-01T21:20:37.066Z,21.99
2022-08-01T21:24:02.369Z,21.99
2022-08-01T21:27:32.953Z,22
2022-08-01T21:30:53.929Z,22.030001
2022-08-01T21:34:18.281Z,22.030001
2022-08-01T21:37:43.598Z,22.030001
2022-08-01T21:41:08.933Z,22.01
2022-08-01T21:44:34.221Z,22
2022-08-01T21:47:59.536Z,21.959999
2022-08-01T21:51:27.929Z,21.91
2022-08-01T21:54:50.133Z,21.870001
2022-08-01T21:58:15.461Z,21.83
2022-08-01T22:01:51.481Z,21.77
2022-08-01T22:05:06.065Z,21.73
2022-08-01T22:08:31.380Z,21.66
2022-08-01T22:11:59.504Z,21.629999
2022-08-01T22:15:22.004Z,21.57
2022-08-01T22:18:47.340Z,21.51
2022-08-01T22:22:12.692Z,21.459999
2022-08-01T22:25:37.935Z,21.41
2022-08-01T22:29:03.253Z,21.370001
2022-08-01T22:32:28.571Z,21.360001
2022-08-01T22:35:53.883Z,21.309999
2022-08-01T22:39:19.200Z,21.25
2022-08-01T22:42:44.526Z,21.23
2022-08-01T22:46:09.850Z,21.190001
2022-08-01T22:49:35.271Z,21.17
2022-08-01T22:53:00.444Z,21.129999
2022-08-01T22:56:25.757Z,21.110001
2022-08-01T22:59:51.085Z,21.1
2022-08-01T23:03:16.367Z,21.09
2022-08-01T23:06:41.675Z,21.1
2022-08-01T23:10:06.999Z,21.110001
2022-08-01T23:13:32.330Z,21.08
2022-08-01T23:16:57.625Z,21.049999
2022-08-01T23:20:22.929Z,21.040001
2022-08-01T23:23:48.242Z,21
2022-08-01T23:27:13.562Z,20.969999
2022-08-01T23:30:38.872Z,20.959999
2022-08-01T23:34:04.190Z,20.950001
2022-08-01T23:37:29.502Z,20.950001
2022-08-01T23:40:54.814Z,20.93
2022-08-01T23:44:20.118Z,20.93
2022-08-01T23:47:45.437Z,20.92
2022-08-01T23:51:13.948Z,20.950001
2022-08-01T23:54:36.046Z,20.959999
2022-08-01T23:58:01.361Z,20.969999
